Time;durP1;ratioP1;P1;durP2;ratioP2;P2;SDS_P1;SDS_P2;PMS_P1;PMS_P2;Temp;Humidity;BMP_temperature;BMP_pressure;BME280_temperature;BME280_humidity;BME280_pressure;Samples;Min_cycle;Max_cycle;Signal;HPM_P1;HPM_P2
2021/10/07 00:00:31;;;;;;;6.88;3.58;;;;;;;6.19;86.78;101492.47;5028882;28;20048;-82
2021/10/07 00:02:56;;;;;;;6.00;3.28;;;;;;;6.21;86.62;101485.53;5041459;28;20034;-82
2021/10/07 00:05:21;;;;;;;5.55;3.05;;;;;;;6.23;86.93;101486.47;5030597;28;20041;-82
2021/10/07 00:07:46;;;;;;;6.20;2.85;;;;;;;6.20;86.12;101489.00;5029908;28;20060;-83
2021/10/07 00:10:12;;;;;;;7.20;3.17;;;;;;;6.15;86.03;101488.88;5040300;28;20037;-82
2021/10/07 00:12:37;;;;;;;6.40;3.08;;;;;;;6.13;86.12;101487.94;5044305;28;20037;-82
2021/10/07 00:15:04;;;;;;;6.85;3.03;;;;;;;6.15;86.12;101491.50;5043441;28;20034;-83
2021/10/07 00:17:29;;;;;;;6.13;3.22;;;;;;;6.15;85.90;101489.75;5030291;28;20029;-83
2021/10/07 00:19:55;;;;;;;5.75;3.13;;;;;;;6.10;86.09;101490.47;5031340;28;20033;-83
2021/10/07 00:22:20;;;;;;;5.20;3.20;;;;;;;6.04;86.46;101479.84;5045402;28;20045;-83
2021/10/07 00:24:46;;;;;;;5.13;2.95;;;;;;;6.04;86.62;101485.97;5053590;28;20040;-84
2021/10/07 00:27:11;;;;;;;5.18;3.08;;;;;;;6.04;86.47;101491.19;5028540;28;20081;-83
2021/10/07 00:29:47;;;;;;;5.88;3.58;;;;;;;6.06;86.79;101484.28;5042302;28;20087;-83
2021/10/07 00:32:19;;;;;;;6.22;3.30;;;;;;;6.10;86.83;101488.78;5029727;28;20095;-83
2021/10/07 00:34:56;;;;;;;6.32;3.80;;;;;;;6.12;86.61;101502.78;5027267;28;20029;-83
2021/10/07 00:40:07;;;;;;;5.85;3.53;;;;;;;6.08;86.07;101493.06;5046618;28;20044;-83
2021/10/07 00:42:33;;;;;;;6.00;3.00;;;;;;;6.09;86.33;101497.44;5050201;28;20043;-83
2021/10/07 00:44:58;;;;;;;5.10;3.10;;;;;;;6.11;86.25;101501.00;5048542;28;20499;-83
2021/10/07 00:47:23;;;;;;;5.10;3.15;;;;;;;6.11;85.97;101502.75;5042589;28;20037;-83
2021/10/07 00:49:49;;;;;;;6.15;3.45;;;;;;;6.10;86.06;101500.97;5046377;28;20037;-83
2021/10/07 00:52:17;;;;;;;5.97;3.42;;;;;;;6.07;86.21;101506.13;5048433;28;20091;-83
2021/10/07 00:54:46;;;;;;;7.47;3.95;;;;;;;6.01;86.25;101504.22;5047795;28;20557;-83
2021/10/07 00:57:17;;;;;;;5.93;3.20;;;;;;;5.98;86.68;101512.00;5040892;28;20026;-83
2021/10/07 00:59:42;;;;;;;5.82;3.15;;;;;;;5.97;86.53;101514.56;5046540;28;20037;-83
2021/10/07 01:02:08;;;;;;;5.85;4.03;;;;;;;5.96;86.29;101518.03;5047131;28;20033;-83
2021/10/07 01:04:34;;;;;;;7.70;4.32;;;;;;;5.89;86.59;101511.69;5045221;28;20041;-83
2021/10/07 01:07:00;;;;;;;6.95;4.00;;;;;;;5.85;86.67;101515.97;5028635;28;20033;-83
2021/10/07 01:09:28;;;;;;;4.60;2.95;;;;;;;5.83;86.37;101512.41;5022990;28;20045;-83
2021/10/07 01:11:53;;;;;;;7.32;3.65;;;;;;;5.80;86.63;101517.56;5026249;28;20052;-83
2021/10/07 01:14:36;;;;;;;5.50;3.35;;;;;;;5.73;85.91;101515.59;5046734;28;20487;-84
2021/10/07 01:17:03;;;;;;;5.82;3.00;;;;;;;5.69;86.64;101527.72;5047581;28;20044;-83
2021/10/07 01:19:28;;;;;;;6.65;3.13;;;;;;;5.68;86.77;101527.66;5027191;28;20033;-84
2021/10/07 01:21:57;;;;;;;8.13;3.35;;;;;;;5.64;85.93;101524.09;5024877;28;20040;-84
2021/10/07 01:24:22;;;;;;;5.03;2.80;;;;;;;5.61;85.94;101516.16;5028234;28;20045;-84
2021/10/07 01:26:48;;;;;;;4.88;2.95;;;;;;;5.60;85.67;101519.59;5046784;28;20377;-84
2021/10/07 01:29:13;;;;;;;5.88;3.33;;;;;;;5.57;85.99;101527.34;5043761;28;20517;-83
2021/10/07 01:31:38;;;;;;;6.40;3.15;;;;;;;5.54;85.99;101529.88;5047770;28;20496;-83
2021/10/07 01:34:04;;;;;;;5.10;3.35;;;;;;;5.51;86.90;101536.78;5050078;28;20491;-83
2021/10/07 01:36:29;;;;;;;7.43;3.72;;;;;;;5.42;87.02;101530.41;5011759;28;20029;-84
2021/10/07 01:38:54;;;;;;;6.00;3.40;;;;;;;5.45;87.74;101540.09;5047711;28;20517;-83
2021/10/07 01:41:20;;;;;;;5.88;3.10;;;;;;;5.45;87.15;101537.47;5044035;28;20507;-83
2021/10/07 01:43:45;;;;;;;5.45;3.00;;;;;;;5.46;86.84;101539.25;5046852;28;20037;-83
2021/10/07 01:46:10;;;;;;;8.15;3.92;;;;;;;5.47;86.70;101533.16;5046168;28;20043;-83
2021/10/07 01:48:36;;;;;;;5.40;3.30;;;;;;;5.47;86.63;101543.63;5041789;28;20045;-83
2021/10/07 01:51:01;;;;;;;6.03;3.58;;;;;;;5.44;86.68;101544.41;5030372;28;20038;-82
2021/10/07 01:53:27;;;;;;;5.18;2.92;;;;;;;5.44;86.80;101541.81;5046295;28;20033;-83
2021/10/07 01:55:53;;;;;;;7.10;3.10;;;;;;;5.45;86.83;101535.75;5028491;28;20107;-83
2021/10/07 01:58:18;;;;;;;6.13;2.70;;;;;;;5.45;86.75;101537.47;5047142;28;20036;-83
2021/10/07 02:00:45;;;;;;;4.50;2.80;;;;;;;5.44;86.85;101538.28;5045177;28;20063;-83
2021/10/07 02:03:10;;;;;;;5.60;2.45;;;;;;;5.39;86.47;101542.50;5033512;28;20119;-83
2021/10/07 02:05:35;;;;;;;6.85;3.45;;;;;;;5.33;86.91;101539.69;5046471;28;20033;-83
2021/10/07 02:08:01;;;;;;;6.32;3.00;;;;;;;5.36;87.42;101550.25;5044248;28;20036;-83
2021/10/07 02:10:26;;;;;;;5.22;2.75;;;;;;;5.37;87.21;101542.47;5029715;28;20060;-83
2021/10/07 02:12:51;;;;;;;5.45;2.60;;;;;;;5.37;86.60;101546.78;5043786;28;20037;-83
2021/10/07 02:15:18;;;;;;;6.28;3.40;;;;;;;5.33;86.49;101543.19;5040470;28;20117;-82
2021/10/07 02:17:43;;;;;;;5.68;3.13;;;;;;;5.27;86.31;101535.16;5044455;28;20048;-83
2021/10/07 02:20:11;;;;;;;5.82;3.60;;;;;;;5.27;86.51;101543.91;5044652;28;20032;-83
2021/10/07 02:22:37;;;;;;;5.43;2.83;;;;;;;5.21;86.59;101546.34;5029898;28;20032;-83
2021/10/07 02:25:03;;;;;;;7.10;2.90;;;;;;;5.21;86.95;101551.56;5048309;28;20049;-83
2021/10/07 02:27:29;;;;;;;6.47;3.63;;;;;;;5.23;86.81;101549.88;5047884;28;20120;-83
2021/10/07 02:29:54;;;;;;;5.82;3.10;;;;;;;5.26;86.77;101560.44;5045650;28;20037;-82
2021/10/07 02:32:19;;;;;;;6.03;3.35;;;;;;;5.27;86.70;101562.22;5042901;28;20369;-82
2021/10/07 02:34:45;;;;;;;5.88;3.58;;;;;;;5.27;86.34;101554.38;5045533;28;20041;-82
2021/10/07 02:37:10;;;;;;;5.28;3.10;;;;;;;5.28;86.54;101564.00;5024822;28;20033;-83
2021/10/07 02:39:39;;;;;;;7.85;2.90;;;;;;;5.27;86.34;101562.22;5029854;28;20439;-83
2021/10/07 02:42:05;;;;;;;7.03;4.03;;;;;;;5.20;86.76;101565.47;5024987;28;20511;-83
2021/10/07 02:44:31;;;;;;;5.88;3.72;;;;;;;5.17;87.15;101569.75;5027325;28;20044;-83
2021/10/07 02:46:56;;;;;;;6.13;4.10;;;;;;;5.21;87.21;101582.06;5030832;28;20123;-83
2021/10/07 02:49:22;;;;;;;8.88;4.20;;;;;;;5.22;86.62;101587.38;5032302;28;20120;-82
2021/10/07 02:51:47;;;;;;;6.28;3.60;;;;;;;5.23;87.05;101588.25;5044330;28;20113;-82
2021/10/07 02:54:13;;;;;;;8.77;4.40;;;;;;;5.23;86.66;101588.25;5045490;28;20148;-82
2021/10/07 02:56:38;;;;;;;7.93;3.92;;;;;;;5.22;86.60;101587.38;5051492;28;20032;-82
2021/10/07 02:59:03;;;;;;;5.07;3.35;;;;;;;5.15;86.29;101595.84;5044819;28;20091;-82
2021/10/07 03:01:28;;;;;;;6.18;4.00;;;;;;;5.12;86.43;101594.88;5042920;28;20109;-82
2021/10/07 03:03:54;;;;;;;8.02;4.47;;;;;;;5.03;86.67;101604.19;5045440;28;20033;-82
2021/10/07 03:06:19;;;;;;;6.38;3.80;;;;;;;5.01;86.60;101604.97;5024903;28;20417;-82
2021/10/07 03:08:45;;;;;;;11.23;4.57;;;;;;;5.02;87.02;101607.63;5027966;28;20037;-82
2021/10/07 03:11:10;;;;;;;7.22;3.67;;;;;;;5.03;86.83;101613.75;5040858;28;20047;-82
2021/10/07 03:13:36;;;;;;;9.85;5.97;;;;;;;4.99;86.89;101614.50;5010735;28;20040;-82
2021/10/07 03:16:01;;;;;;;8.52;5.53;;;;;;;4.95;87.45;101623.97;5028035;28;20070;-82
2021/10/07 03:18:26;;;;;;;7.40;5.50;;;;;;;4.95;87.95;101623.97;5041789;28;20041;-82
2021/10/07 03:20:52;;;;;;;9.65;5.35;;;;;;;4.98;88.14;101624.06;5043714;28;20033;-82
2021/10/07 03:23:17;;;;;;;8.48;4.75;;;;;;;4.99;87.95;101630.19;5047061;28;20033;-82
2021/10/07 03:25:42;;;;;;;15.05;5.32;;;;;;;4.99;87.48;101632.81;5033474;28;20041;-82
2021/10/07 03:28:08;;;;;;;6.00;4.25;;;;;;;4.97;87.85;101639.72;5045228;28;20037;-82
2021/10/07 03:30:33;;;;;;;5.40;4.00;;;;;;;4.96;87.79;101636.22;5005232;28;20044;-82
2021/10/07 03:33:07;;;;;;;5.88;3.45;;;;;;;4.95;87.44;101633.53;5042379;28;20103;-81
2021/10/07 03:35:34;;;;;;;6.68;4.20;;;;;;;4.89;87.25;101646.41;5044696;28;20112;-82
2021/10/07 03:38:00;;;;;;;7.53;4.45;;;;;;;4.87;87.59;101646.34;5025742;28;20037;-82
2021/10/07 03:40:25;;;;;;;6.13;3.55;;;;;;;4.90;87.47;101645.56;5045565;28;20124;-82
2021/10/07 03:42:50;;;;;;;5.88;3.53;;;;;;;4.90;87.21;101654.31;5042391;28;20037;-82
2021/10/07 03:45:16;;;;;;;5.50;3.80;;;;;;;4.91;87.51;101656.09;5028444;28;20048;-81
2021/10/07 03:47:41;;;;;;;6.18;3.92;;;;;;;4.86;87.09;101654.16;5041652;28;20045;-82
2021/10/07 03:50:07;;;;;;;8.02;3.55;;;;;;;4.84;87.00;101654.97;5040549;28;20044;-82
2021/10/07 03:52:32;;;;;;;7.78;4.28;;;;;;;4.88;86.97;101658.59;5026479;28;20037;-82
2021/10/07 03:54:57;;;;;;;8.63;3.97;;;;;;;4.90;86.93;101656.94;5030180;28;20041;-83
2021/10/07 03:57:23;;;;;;;9.05;4.15;;;;;;;4.91;86.81;101655.19;5041112;28;20098;-81
2021/10/07 03:59:50;;;;;;;7.47;4.32;;;;;;;4.93;86.84;101653.53;5021657;28;20029;-81
2021/10/07 04:02:16;;;;;;;6.30;3.67;;;;;;;4.88;86.49;101655.97;5044850;28;20044;-82
2021/10/07 04:04:41;;;;;;;4.93;2.97;;;;;;;4.82;86.59;101658.38;5043038;28;20041;-82
2021/10/07 04:07:08;;;;;;;6.38;4.13;;;;;;;4.79;86.71;101659.19;5044468;28;20044;-83
2021/10/07 04:09:33;;;;;;;6.03;3.90;;;;;;;4.76;86.83;101655.53;5052856;28;20095;-82
2021/10/07 04:11:58;;;;;;;6.47;3.25;;;;;;;4.73;86.39;101661.56;5045926;28;20029;-81
2021/10/07 04:14:24;;;;;;;6.25;3.17;;;;;;;4.70;86.80;101671.91;5022337;28;20069;-82
2021/10/07 04:16:49;;;;;;;6.30;3.60;;;;;;;4.74;86.90;101668.59;5043777;28;20029;-83
2021/10/07 04:19:17;;;;;;;5.50;3.63;;;;;;;4.73;86.97;101678.97;5053091;28;20034;-81
2021/10/07 04:21:43;;;;;;;6.75;3.38;;;;;;;4.74;86.93;101667.66;5035757;28;20104;-81
2021/10/07 04:24:08;;;;;;;5.38;2.65;;;;;;;4.70;86.30;101674.53;5047404;28;20116;-82
2021/10/07 04:26:34;;;;;;;5.90;3.58;;;;;;;4.70;86.56;101673.66;5047792;28;20029;-80
2021/10/07 04:28:59;;;;;;;5.80;3.05;;;;;;;4.63;86.61;101669.91;5049036;28;20072;-82
2021/10/07 04:31:25;;;;;;;12.40;8.25;;;;;;;4.63;86.88;101679.47;5057906;28;20033;-81
2021/10/07 04:33:50;;;;;;;9.70;6.03;;;;;;;4.67;86.86;101682.25;5058499;28;20036;-81
2021/10/07 04:36:16;;;;;;;6.72;4.05;;;;;;;4.68;86.91;101686.66;5058810;28;20135;-81
2021/10/07 04:38:41;;;;;;;7.57;5.13;;;;;;;4.67;87.41;101682.25;5051003;28;20037;-81
2021/10/07 04:41:07;;;;;;;9.68;4.93;;;;;;;4.69;87.56;101688.44;5057283;28;20120;-80
2021/10/07 04:43:32;;;;;;;9.35;4.72;;;;;;;4.66;87.54;101685.69;5060595;28;20033;-80
2021/10/07 04:45:57;;;;;;;5.60;3.70;;;;;;;4.71;87.46;101694.59;5057262;28;20037;-80
2021/10/07 04:48:22;;;;;;;6.53;4.38;;;;;;;4.75;86.91;101691.28;5059320;28;20033;-80
2021/10/07 04:50:48;;;;;;;5.90;3.80;;;;;;;4.78;86.88;101701.84;5061083;28;20040;-80
2021/10/07 04:53:13;;;;;;;5.05;3.17;;;;;;;4.76;86.83;101702.63;5056482;28;20040;-80
2021/10/07 04:55:39;;;;;;;7.80;5.13;;;;;;;4.73;87.09;101702.50;5025465;28;20033;-81
2021/10/07 04:58:04;;;;;;;7.40;5.15;;;;;;;4.76;86.45;101707.84;5035041;28;20063;-81
2021/10/07 05:00:29;;;;;;;10.20;6.75;;;;;;;4.71;86.86;101712.03;5052380;28;20104;-81
2021/10/07 05:02:57;;;;;;;10.05;6.30;;;;;;;4.72;86.92;101701.63;5048959;28;20065;-81
2021/10/07 05:05:22;;;;;;;8.50;6.18;;;;;;;4.74;86.82;101709.50;5048530;28;20099;-81
2021/10/07 05:07:47;;;;;;;9.60;6.75;;;;;;;4.73;86.40;101712.97;5050279;28;20403;-81
2021/10/07 05:10:13;;;;;;;8.32;5.47;;;;;;;4.68;86.39;101722.38;5052388;28;20037;-81
2021/10/07 05:12:40;;;;;;;7.35;4.40;;;;;;;4.65;86.29;101730.13;5036068;28;20042;-81
2021/10/07 05:15:06;;;;;;;6.75;4.30;;;;;;;4.60;86.67;101728.22;5036650;28;20144;-81
2021/10/07 05:17:31;;;;;;;5.30;3.75;;;;;;;4.60;86.92;101743.00;5032981;28;20030;-81
2021/10/07 05:19:56;;;;;;;8.25;3.65;;;;;;;4.58;87.03;101739.44;5050872;28;20038;-81
2021/10/07 05:22:22;;;;;;;6.80;3.83;;;;;;;4.55;87.29;101734.97;5053972;28;20033;-80
2021/10/07 05:24:48;;;;;;;6.60;4.25;;;;;;;4.57;87.38;101737.66;5051327;28;20040;-81
2021/10/07 05:27:13;;;;;;;8.52;5.10;;;;;;;4.60;86.77;101737.78;5048385;28;20901;-81
2021/10/07 05:29:39;;;;;;;8.35;4.30;;;;;;;4.61;87.18;101750.00;5052439;28;20072;-81
2021/10/07 05:32:04;;;;;;;8.93;5.10;;;;;;;4.62;86.77;101741.34;5034275;28;20037;-81
2021/10/07 05:34:30;;;;;;;6.43;4.55;;;;;;;4.66;86.71;101748.47;5051727;28;20057;-81
2021/10/07 05:36:55;;;;;;;7.10;4.57;;;;;;;4.68;86.60;101746.78;5053275;28;20067;-81
2021/10/07 05:39:20;;;;;;;10.80;4.60;;;;;;;4.72;86.73;101756.56;5056155;28;20034;-81
2021/10/07 05:41:45;;;;;;;7.85;5.25;;;;;;;4.78;86.47;101758.50;5036098;28;20059;-81
2021/10/07 05:44:11;;;;;;;13.60;8.80;;;;;;;4.82;86.05;101757.75;5049623;28;20075;-81
2021/10/07 05:46:37;;;;;;;12.63;6.15;;;;;;;4.81;86.76;101762.09;5036376;28;20052;-81
2021/10/07 05:49:04;;;;;;;11.00;5.57;;;;;;;4.83;86.99;101765.69;5031768;28;20037;-81
2021/10/07 05:51:30;;;;;;;7.38;4.78;;;;;;;4.87;87.26;101768.41;5063447;28;20047;-81
2021/10/07 05:53:55;;;;;;;8.07;5.35;;;;;;;4.95;87.30;101761.72;5061006;28;20103;-81
2021/10/07 05:56:21;;;;;;;9.82;4.15;;;;;;;4.98;86.52;101765.34;5054333;28;20041;-81
2021/10/07 05:58:46;;;;;;;8.07;4.22;;;;;;;4.99;86.07;101764.50;5052176;28;20033;-81
2021/10/07 06:01:11;;;;;;;7.95;4.70;;;;;;;5.07;86.73;101782.22;5032557;28;20039;-81
2021/10/07 06:03:37;;;;;;;12.23;5.63;;;;;;;5.17;86.41;101786.97;5057401;28;20387;-81
2021/10/07 06:06:02;;;;;;;9.40;6.30;;;;;;;5.26;86.90;101782.03;5054757;28;20056;-81
2021/10/07 06:08:27;;;;;;;8.05;5.07;;;;;;;5.34;86.21;101777.06;5050570;28;20034;-81
2021/10/07 06:10:52;;;;;;;9.20;5.45;;;;;;;5.42;86.79;101783.47;5034142;28;20404;-81
2021/10/07 06:13:18;;;;;;;10.77;4.90;;;;;;;5.50;86.48;101782.00;5053882;28;20420;-81
2021/10/07 06:15:43;;;;;;;6.95;5.13;;;;;;;5.59;86.60;101784.94;5053529;28;20040;-81
2021/10/07 06:18:08;;;;;;;7.72;5.10;;;;;;;5.64;86.05;101779.88;5050713;28;20041;-81
2021/10/07 06:20:35;;;;;;;10.18;6.70;;;;;;;5.70;85.85;101770.47;5057973;28;20041;-80
2021/10/07 06:23:01;;;;;;;9.85;7.28;;;;;;;5.79;86.18;101775.16;5043449;28;20509;-81
2021/10/07 06:25:27;;;;;;;11.60;6.00;;;;;;;5.93;86.28;101778.22;5057043;28;20037;-81
2021/10/07 06:27:53;;;;;;;11.95;5.90;;;;;;;6.02;86.04;101782.88;5057699;28;20328;-80
2021/10/07 06:30:19;;;;;;;8.93;5.07;;;;;;;6.11;86.05;101786.72;5040022;28;20067;-81
2021/10/07 06:32:44;;;;;;;10.70;5.35;;;;;;;6.21;86.18;101789.59;5059283;28;20120;-81
2021/10/07 06:35:11;;;;;;;9.00;5.57;;;;;;;6.32;86.83;101793.47;5052666;28;20060;-81
2021/10/07 06:37:37;;;;;;;7.70;4.97;;;;;;;6.44;86.83;101795.56;5050301;28;20519;-81
2021/10/07 06:40:04;;;;;;;7.45;4.38;;;;;;;6.56;87.25;101799.47;5050954;28;20033;-81
2021/10/07 06:42:29;;;;;;;6.88;4.65;;;;;;;6.70;87.12;101794.63;5047302;28;20178;-81
2021/10/07 06:44:54;;;;;;;9.75;6.13;;;;;;;6.82;87.25;101799.38;5051606;28;20056;-81
2021/10/07 06:47:20;;;;;;;8.32;6.60;;;;;;;6.95;87.48;101798.00;5035969;28;20099;-81
2021/10/07 06:49:45;;;;;;;8.70;6.50;;;;;;;7.08;87.64;101796.63;5030423;28;20033;-81
2021/10/07 06:52:11;;;;;;;10.60;6.05;;;;;;;7.21;87.68;101802.25;5037887;28;20056;-81
2021/10/07 06:54:36;;;;;;;7.97;6.38;;;;;;;7.34;87.97;101802.59;5040120;28;20080;-81
2021/10/07 06:57:01;;;;;;;8.15;6.00;;;;;;;7.51;87.87;101803.03;5029211;28;20029;-81
2021/10/07 06:59:27;;;;;;;10.15;7.30;;;;;;;7.63;87.51;101808.63;5049212;28;20030;-81
2021/10/07 07:01:52;;;;;;;11.70;6.82;;;;;;;7.76;88.01;101813.34;5047480;28;20041;-81
2021/10/07 07:04:17;;;;;;;8.55;4.97;;;;;;;7.92;87.53;101809.38;5047824;28;20044;-81
2021/10/07 07:06:45;;;;;;;10.43;4.97;;;;;;;8.07;86.91;101811.50;5048600;28;20045;-81
2021/10/07 07:09:11;;;;;;;9.90;5.72;;;;;;;8.14;86.50;101818.66;5042577;28;20116;-81
2021/10/07 07:11:37;;;;;;;9.43;5.63;;;;;;;8.27;86.79;101820.72;5046877;28;20204;-81
2021/10/07 07:14:02;;;;;;;12.07;6.50;;;;;;;8.35;86.33;101821.81;5047848;28;20561;-81
2021/10/07 07:16:29;;;;;;;10.48;5.80;;;;;;;8.49;85.91;101829.19;5025493;28;20055;-81
2021/10/07 07:18:54;;;;;;;9.55;5.55;;;;;;;8.60;86.08;101824.16;5046984;28;20415;-81
2021/10/07 07:21:22;;;;;;;8.75;5.10;;;;;;;8.72;85.96;101825.34;5049523;28;20037;-81
2021/10/07 07:23:49;;;;;;;10.63;5.82;;;;;;;8.84;85.48;101829.97;5044642;28;20507;-81
2021/10/07 07:26:14;;;;;;;10.15;4.90;;;;;;;8.96;85.26;101839.84;5028955;28;20092;-81
2021/10/07 07:28:39;;;;;;;9.88;5.35;;;;;;;9.02;84.67;101844.38;5049614;28;20462;-81
2021/10/07 07:31:05;;;;;;;12.55;5.50;;;;;;;9.10;84.54;101843.69;5050096;28;20055;-81
2021/10/07 07:33:30;;;;;;;11.43;5.80;;;;;;;9.18;84.46;101838.56;5053650;28;20036;-81
2021/10/07 07:35:55;;;;;;;11.13;5.30;;;;;;;9.28;84.73;101837.03;5051688;28;20108;-81
2021/10/07 07:38:21;;;;;;;7.22;4.60;;;;;;;9.37;83.80;101840.72;5048214;28;20041;-81
2021/10/07 07:40:46;;;;;;;6.93;4.85;;;;;;;9.43;84.03;101843.47;5053732;28;20028;-81
2021/10/07 07:43:18;;;;;;;7.53;4.50;;;;;;;9.53;83.60;101838.38;5052540;28;20063;-82
2021/10/07 07:45:45;;;;;;;9.35;5.05;;;;;;;9.65;83.80;101839.50;5047968;28;20041;-81
2021/10/07 07:48:11;;;;;;;9.50;4.85;;;;;;;9.75;83.14;101843.19;5052514;28;20494;-81
2021/10/07 07:50:36;;;;;;;9.25;4.70;;;;;;;9.86;82.73;101846.03;5038073;28;20045;-81
2021/10/07 07:53:01;;;;;;;8.95;4.53;;;;;;;9.93;82.45;101849.63;5048369;28;20407;-81
2021/10/07 07:55:27;;;;;;;7.60;4.22;;;;;;;10.03;82.54;101854.22;5045641;28;20512;-81
2021/10/07 07:57:52;;;;;;;8.88;4.85;;;;;;;10.11;82.35;101855.22;5052743;28;20032;-81
2021/10/07 08:00:18;;;;;;;6.72;4.05;;;;;;;10.22;81.84;101853.69;5053738;28;20435;-81
2021/10/07 08:02:43;;;;;;;8.38;4.60;;;;;;;10.33;81.77;101856.53;5044613;28;20033;-81
2021/10/07 08:05:09;;;;;;;8.88;3.97;;;;;;;10.43;81.28;101850.53;5048968;28;20479;-81
2021/10/07 08:07:34;;;;;;;8.73;4.82;;;;;;;10.47;81.09;101849.69;5049521;28;20055;-81
2021/10/07 08:10:00;;;;;;;8.32;4.80;;;;;;;10.55;80.78;101851.56;5055111;28;20101;-81
2021/10/07 08:12:25;;;;;;;7.90;4.80;;;;;;;10.64;80.86;101859.66;5056394;28;20048;-80
2021/10/07 08:14:50;;;;;;;7.53;4.15;;;;;;;10.70;80.93;101857.09;5048945;28;20044;-81
2021/10/07 08:17:16;;;;;;;6.65;4.20;;;;;;;10.79;80.43;101865.13;5049943;28;20038;-81
2021/10/07 08:19:42;;;;;;;6.50;3.83;;;;;;;10.89;80.61;101864.38;5053849;28;20032;-81
2021/10/07 08:22:08;;;;;;;5.93;3.92;;;;;;;11.01;80.11;101871.59;5044381;28;20100;-81
2021/10/07 08:24:34;;;;;;;8.88;4.07;;;;;;;11.14;80.16;101870.03;5030217;28;20056;-81
2021/10/07 08:27:01;;;;;;;6.82;3.75;;;;;;;11.22;79.12;101871.00;5053656;28;20045;-81
2021/10/07 08:29:27;;;;;;;6.28;4.20;;;;;;;11.27;79.39;101871.94;5046637;28;20495;-81
2021/10/07 08:31:52;;;;;;;6.60;4.03;;;;;;;11.39;78.86;101871.19;5050698;28;20040;-81
2021/10/07 08:34:17;;;;;;;6.38;3.67;;;;;;;11.54;78.70;101875.78;5047076;28;20025;-81
2021/10/07 08:36:43;;;;;;;5.40;3.50;;;;;;;11.64;77.75;101880.31;5045274;28;20060;-81
2021/10/07 08:39:16;;;;;;;7.10;4.30;;;;;;;11.68;77.57;101879.44;5036202;28;20033;-81
2021/10/07 08:41:45;;;;;;;7.97;4.07;;;;;;;11.76;78.03;101877.81;5054835;28;20128;-80
2021/10/07 08:44:12;;;;;;;8.63;4.25;;;;;;;11.90;77.52;101877.09;5058215;28;20571;-80
2021/10/07 08:46:40;;;;;;;7.22;3.50;;;;;;;12.01;77.07;101875.41;5046743;28;20033;-81
2021/10/07 08:49:07;;;;;;;7.13;4.20;;;;;;;12.10;76.76;101872.84;5054512;28;20427;-81
2021/10/07 08:51:32;;;;;;;5.50;3.47;;;;;;;12.20;76.69;101869.41;5058008;28;20048;-79
2021/10/07 08:53:57;;;;;;;6.35;3.22;;;;;;;12.31;76.47;101866.84;5055042;28;20045;-80
2021/10/07 08:56:25;;;;;;;6.28;3.55;;;;;;;12.41;76.52;101874.00;5064735;28;20036;-81
2021/10/07 08:58:51;;;;;;;7.65;4.13;;;;;;;12.48;75.77;101875.81;5057975;28;20038;-81
2021/10/07 09:01:40;;;;;;;8.15;3.90;;;;;;;12.50;75.42;101867.91;5056180;28;20044;-81
2021/10/07 09:04:15;;;;;;;8.63;4.13;;;;;;;12.60;75.43;101879.41;5044027;28;20040;-80
2021/10/07 09:06:44;;;;;;;6.90;4.85;;;;;;;12.76;75.35;101875.09;5052381;28;20105;-81
2021/10/07 09:09:10;;;;;;;6.70;4.40;;;;;;;12.83;74.11;101871.63;5037585;28;20053;-81
2021/10/07 09:11:35;;;;;;;8.15;3.70;;;;;;;12.85;74.10;101869.88;5055524;28;20537;-81
2021/10/07 09:14:03;;;;;;;7.15;3.60;;;;;;;12.90;73.83;101871.69;5037332;28;20044;-80
2021/10/07 09:16:33;;;;;;;5.43;3.58;;;;;;;12.92;73.65;101864.63;5056715;28;20029;-81
2021/10/07 09:19:12;;;;;;;9.15;3.50;;;;;;;13.01;73.93;101861.13;5056682;28;20037;-81
2021/10/07 09:21:37;;;;;;;6.07;3.38;;;;;;;13.10;73.12;101861.19;5052486;28;20144;-81
2021/10/07 09:24:03;;;;;;;5.03;2.80;;;;;;;13.16;72.73;101866.50;5056531;28;20037;-80
2021/10/07 09:26:28;;;;;;;6.95;3.42;;;;;;;13.26;71.52;101866.56;5055596;28;20037;-81
2021/10/07 09:28:57;;;;;;;12.18;3.72;;;;;;;13.33;71.27;101863.06;5053963;28;20072;-81
2021/10/07 09:31:34;;;;;;;9.52;3.75;;;;;;;13.45;70.37;101868.41;5037326;28;20029;-81
2021/10/07 09:34:03;;;;;;;8.27;3.40;;;;;;;13.54;70.76;101860.47;5053587;28;20125;-81
2021/10/07 09:36:30;;;;;;;7.38;4.70;;;;;;;13.65;70.90;101862.28;5053242;28;20040;-81
2021/10/07 09:38:56;;;;;;;6.78;4.07;;;;;;;13.68;70.29;101862.31;5055791;28;20056;-81
2021/10/07 09:41:32;;;;;;;9.20;2.85;;;;;;;13.72;69.27;101861.41;5053233;28;20476;-80
2021/10/07 09:44:04;;;;;;;5.35;3.10;;;;;;;13.89;68.99;101858.81;5052519;28;20476;-81
2021/10/07 09:46:50;;;;;;;6.20;2.50;;;;;;;14.02;68.26;101852.63;5054358;28;20041;-81
2021/10/07 09:49:17;;;;;;;5.68;2.15;;;;;;;14.11;68.02;101849.09;5055242;28;20040;-80
2021/10/07 09:51:48;;;;;;;6.22;1.73;;;;;;;14.20;67.43;101852.63;5052641;28;20033;-80
2021/10/07 09:54:31;;;;;;;3.97;1.60;;;;;;;14.26;66.92;101843.78;5052159;28;20041;-81
2021/10/07 09:56:58;;;;;;;;;;;;;;;14.23;66.57;101849.09;5044676;28;20276;-81
2021/10/07 09:59:26;;;;;;;7.72;2.42;;;;;;;14.36;67.40;101855.28;5038912;28;19916;-81
2021/10/07 10:01:54;;;;;;;6.53;2.50;;;;;;;14.43;67.77;101849.94;5054010;28;20044;-81
2021/10/07 10:04:20;;;;;;;5.70;2.60;;;;;;;14.50;66.68;101848.19;5055324;28;20039;-80
2021/10/07 10:06:46;;;;;;;6.70;2.28;;;;;;;14.61;66.39;101851.72;5064957;28;20028;-79
2021/10/07 10:09:11;;;;;;;5.75;2.50;;;;;;;14.68;66.09;101857.91;5041550;28;20043;-80
2021/10/07 10:11:36;;;;;;;6.82;2.47;;;;;;;14.74;66.26;101852.59;5058013;28;20063;-79
2021/10/07 10:14:02;;;;;;;5.88;2.47;;;;;;;14.79;65.87;101850.81;5051831;28;20084;-80
2021/10/07 10:16:29;;;;;;;7.18;2.42;;;;;;;14.79;65.96;101853.47;5059917;28;20035;-79
2021/10/07 10:19:00;;;;;;;5.32;2.40;;;;;;;14.85;65.99;101855.22;5057803;28;20044;-79
2021/10/07 10:21:28;;;;;;;12.15;4.55;;;;;;;14.99;66.70;101861.38;5047674;28;20036;-79
2021/10/07 10:23:55;;;;;;;5.07;2.38;;;;;;;15.08;65.11;101858.69;5040185;28;20122;-79
2021/10/07 10:26:21;;;;;;;4.68;2.20;;;;;;;15.07;64.61;101861.38;5040034;28;20063;-80
2021/10/07 10:28:52;;;;;;;6.43;2.80;;;;;;;15.17;64.15;101857.78;5052423;28;20096;-77
2021/10/07 10:31:17;;;;;;;5.10;2.97;;;;;;;15.22;64.13;101856.00;5060364;28;20112;-79
2021/10/07 10:33:45;;;;;;;5.47;2.45;;;;;;;15.23;63.54;101852.44;5057453;28;20045;-80
2021/10/07 10:36:23;;;;;;;4.00;1.77;;;;;;;15.29;62.63;101852.38;5057425;28;20490;-79
2021/10/07 10:39:23;;;;;;;4.65;1.90;;;;;;;15.32;61.90;101852.38;5026096;28;20047;-80
2021/10/07 10:41:58;;;;;;;6.05;1.85;;;;;;;15.39;62.37;101850.59;5048164;28;20164;-79
2021/10/07 10:44:26;;;;;;;3.45;1.88;;;;;;;15.47;63.25;101853.19;5052688;28;20041;-78
2021/10/07 10:47:14;;;;;;;4.13;1.70;;;;;;;15.55;61.16;101852.25;5066412;28;20036;-79
2021/10/07 10:49:40;;;;;;;5.45;1.70;;;;;;;15.62;61.65;101852.25;5055735;28;20029;-80
2021/10/07 10:52:29;;;;;;;5.30;1.70;;;;;;;15.72;61.35;101854.00;5054206;28;20075;-79
2021/10/07 10:54:59;;;;;;;5.10;1.70;;;;;;;15.84;61.81;101858.34;5054850;28;20123;-79
2021/10/07 10:57:31;;;;;;;3.70;1.50;;;;;;;15.95;61.82;101861.78;5053292;28;20022;-80
2021/10/07 11:00:31;;;;;;;12.07;4.95;;;;;;;16.07;61.34;101867.03;5037038;28;20044;-78
2021/10/07 11:03:06;;;;;;;6.03;1.95;;;;;;;15.90;59.75;101868.94;5050457;28;20033;-80
2021/10/07 11:05:31;;;;;;;4.78;1.67;;;;;;;16.07;60.52;101864.38;5048709;28;20044;-81
2021/10/07 11:08:12;;;;;;;6.40;1.65;;;;;;;16.21;59.76;101867.81;5055214;28;20033;-81
2021/10/07 11:10:38;;;;;;;6.00;1.48;;;;;;;16.25;59.79;101863.34;5048599;28;20415;-81
2021/10/07 11:13:03;;;;;;;3.83;1.73;;;;;;;16.38;59.46;101865.00;5053170;28;20032;-81
2021/10/07 11:15:29;;;;;;;4.03;2.05;;;;;;;16.40;59.44;101863.22;5043984;28;20029;-81
2021/10/07 11:17:56;;;;;;;4.32;1.55;;;;;;;16.51;58.75;101859.56;5057338;28;20032;-81
2021/10/07 11:20:32;;;;;;;3.78;1.20;;;;;;;16.53;56.10;101861.31;5043062;28;20052;-80
2021/10/07 11:23:03;;;;;;;5.35;1.17;;;;;;;16.69;55.66;101861.16;5032915;28;20033;-80
2021/10/07 11:25:29;;;;;;;4.53;1.10;;;;;;;16.92;56.66;101863.59;5048719;28;20052;-81
2021/10/07 11:27:55;;;;;;;2.42;1.10;;;;;;;17.16;55.54;101865.09;5054520;28;20020;-80
2021/10/07 11:30:22;;;;;;;5.20;1.58;;;;;;;17.39;55.03;101862.16;5061961;28;20076;-80